createdAt,value
2017-03-30T00:00:11.307Z,11.95
2017-03-30T00:00:52.194Z,11.86
2017-03-30T00:01:33.081Z,11.87
2017-03-30T00:02:13.975Z,11.87
2017-03-30T00:02:54.874Z,11.94
2017-03-30T00:03:35.758Z,11.86
2017-03-30T00:04:16.647Z,11.9
2017-03-30T00:04:57.536Z,11.9
2017-03-30T00:05:38.412Z,11.94
2017-03-30T00:06:19.289Z,11.87
2017-03-30T00:07:00.186Z,11.9
2017-03-30T00:07:41.063Z,11.95
2017-03-30T00:08:21.941Z,11.95
2017-03-30T00:09:02.832Z,11.86
2017-03-30T00:09:43.727Z,11.94
2017-03-30T00:10:24.613Z,11.9
2017-03-30T00:11:05.485Z,11.84
2017-03-30T00:11:46.368Z,11.88
2017-03-30T00:12:27.262Z,11.86
2017-03-30T00:13:08.142Z,11.95
2017-03-30T00:13:49.002Z,11.88
2017-03-30T00:14:29.910Z,11.86
2017-03-30T00:15:10.796Z,11.99
2017-03-30T00:15:51.678Z,11.86
2017-03-30T00:16:32.555Z,11.97
2017-03-30T00:17:13.433Z,11.88
2017-03-30T00:17:54.320Z,11.9
2017-03-30T00:18:35.205Z,11.87
2017-03-30T00:19:16.086Z,11.91
2017-03-30T00:19:56.949Z,11.91
2017-03-30T00:20:37.832Z,11.88
2017-03-30T00:21:18.718Z,11.91
2017-03-30T00:21:59.601Z,11.9
2017-03-30T00:22:40.483Z,11.86
2017-03-30T00:23:21.369Z,11.81
2017-03-30T00:24:02.266Z,11.86
2017-03-30T00:24:43.142Z,11.87
2017-03-30T00:25:24.032Z,11.95
2017-03-30T00:26:04.918Z,11.86
2017-03-30T00:26:45.805Z,11.88
2017-03-30T00:27:26.689Z,11.9
2017-03-30T00:28:07.568Z,11.88
2017-03-30T00:28:48.451Z,11.87
2017-03-30T00:29:29.342Z,11.9
2017-03-30T00:30:10.222Z,11.9
2017-03-30T00:30:51.116Z,11.86
2017-03-30T00:31:31.999Z,11.84
2017-03-30T00:32:12.900Z,11.91
2017-03-30T00:32:53.783Z,11.9
2017-03-30T00:33:34.730Z,11.86
2017-03-30T00:34:15.626Z,11.86
2017-03-30T00:34:56.517Z,11.91
2017-03-30T00:35:37.398Z,11.94
2017-03-30T00:36:18.283Z,12.02
2017-03-30T00:36:59.169Z,11.88
2017-03-30T00:37:40.067Z,11.84
2017-03-30T00:38:20.941Z,11.83
2017-03-30T00:39:01.829Z,11.86
2017-03-30T00:39:42.717Z,11.84
2017-03-30T00:40:23.604Z,11.86
2017-03-30T00:41:04.476Z,11.94
2017-03-30T00:41:45.362Z,11.86
2017-03-30T00:42:26.247Z,11.86
2017-03-30T00:43:07.133Z,11.87
2017-03-30T00:43:48.016Z,11.83
2017-03-30T00:44:28.894Z,11.78
2017-03-30T00:45:09.781Z,11.7
2017-03-30T00:45:50.663Z,11.73
2017-03-30T00:46:31.548Z,11.78
2017-03-30T00:47:12.432Z,11.78
2017-03-30T00:47:53.321Z,11.8
2017-03-30T00:48:34.202Z,11.86
2017-03-30T00:49:15.082Z,11.68
2017-03-30T00:49:55.968Z,11.69
2017-03-30T00:50:36.878Z,11.7
2017-03-30T00:51:17.751Z,11.7
2017-03-30T00:51:58.635Z,11.7
2017-03-30T00:52:39.522Z,11.75
2017-03-30T00:53:20.411Z,11.8
2017-03-30T00:54:01.323Z,11.75
2017-03-30T00:54:42.226Z,11.77
2017-03-30T00:55:23.091Z,11.69
2017-03-30T00:56:03.959Z,11.69
2017-03-30T00:56:44.851Z,11.63
2017-03-30T00:57:25.743Z,11.66
2017-03-30T00:58:06.619Z,11.69
2017-03-30T00:58:47.505Z,11.66
2017-03-30T00:59:28.386Z,11.73
2017-03-30T01:00:09.310Z,11.73
2017-03-30T01:00:50.192Z,11.72
2017-03-30T01:01:31.107Z,11.69
2017-03-30T01:02:11.982Z,11.72
2017-03-30T01:02:52.880Z,11.73
2017-03-30T01:03:33.786Z,11.73
2017-03-30T01:04:14.639Z,11.59
2017-03-30T01:04:55.507Z,11.68
2017-03-30T01:05:36.388Z,11.7
2017-03-30T01:06:17.273Z,11.72
2017-03-30T01:06:58.155Z,11.68
2017-03-30T01:07:39.041Z,11.78
2017-03-30T01:08:19.911Z,11.78
2017-03-30T01:09:00.801Z,11.72
2017-03-30T01:09:41.685Z,11.75
2017-03-30T01:10:22.577Z,11.78
2017-03-30T01:11:03.429Z,11.83
2017-03-30T01:11:44.290Z,11.88
2017-03-30T01:12:25.178Z,11.9
2017-03-30T01:13:06.056Z,11.73
2017-03-30T01:13:46.945Z,11.72
2017-03-30T01:14:27.816Z,11.72
2017-03-30T01:15:08.699Z,11.73
2017-03-30T01:15:49.589Z,11.72
2017-03-30T01:16:30.473Z,11.68
2017-03-30T01:17:11.361Z,11.66
2017-03-30T01:17:52.232Z,11.62
2017-03-30T01:18:33.109Z,11.57
2017-03-30T01:19:13.986Z,11.68
2017-03-30T01:19:54.885Z,11.72
2017-03-30T01:20:35.746Z,11.83
2017-03-30T01:21:16.618Z,11.78
2017-03-30T01:21:57.503Z,11.75
2017-03-30T01:22:38.388Z,11.69
2017-03-30T01:23:19.297Z,11.7
2017-03-30T01:24:00.183Z,11.65
2017-03-30T01:24:41.072Z,11.77
2017-03-30T01:25:21.959Z,11.81
2017-03-30T01:26:02.839Z,11.73
2017-03-30T01:26:43.720Z,11.63
2017-03-30T01:27:24.628Z,11.65
2017-03-30T01:28:05.479Z,11.6
2017-03-30T01:28:46.360Z,11.62
2017-03-30T01:29:27.242Z,11.65
2017-03-30T01:30:08.141Z,11.65
2017-03-30T01:30:49.015Z,11.72
2017-03-30T01:31:29.898Z,11.72
2017-03-30T01:32:10.776Z,11.62
2017-03-30T01:32:51.664Z,11.68
2017-03-30T01:33:32.550Z,11.63
2017-03-30T01:34:13.432Z,11.55
2017-03-30T01:34:54.312Z,11.52
2017-03-30T01:35:35.205Z,11.51
2017-03-30T01:36:16.087Z,11.6
2017-03-30T01:36:56.971Z,11.55
2017-03-30T01:37:37.856Z,11.51
2017-03-30T01:38:18.756Z,11.55
2017-03-30T01:38:59.637Z,11.57
2017-03-30T01:39:40.526Z,11.62
2017-03-30T01:40:21.412Z,11.54
2017-03-30T01:41:02.292Z,11.59
2017-03-30T01:41:43.167Z,11.55
2017-03-30T01:42:24.063Z,11.55
2017-03-30T01:43:04.945Z,11.57
2017-03-30T01:43:45.825Z,11.51
2017-03-30T01:44:26.712Z,11.45
2017-03-30T01:45:07.592Z,11.55
2017-03-30T01:45:48.480Z,11.5
2017-03-30T01:46:29.374Z,11.55
2017-03-30T01:47:10.258Z,11.41
2017-03-30T01:47:51.140Z,11.45
2017-03-30T01:48:32.027Z,11.47
2017-03-30T01:49:12.911Z,11.43
2017-03-30T01:49:53.794Z,11.44
2017-03-30T01:50:34.679Z,11.4
2017-03-30T01:51:15.568Z,11.41
2017-03-30T01:51:56.445Z,11.43
2017-03-30T01:52:37.325Z,11.44
2017-03-30T01:53:18.216Z,11.43
2017-03-30T01:53:59.096Z,11.36
2017-03-30T01:54:39.978Z,11.45
2017-03-30T01:55:20.864Z,11.41
2017-03-30T01:56:01.763Z,11.41
2017-03-30T01:56:42.637Z,11.45
2017-03-30T01:57:23.519Z,11.41
2017-03-30T01:58:04.397Z,11.47
2017-03-30T01:58:45.278Z,11.44
2017-03-30T01:59:26.165Z,11.47
2017-03-30T02:00:07.042Z,11.41
2017-03-30T02:00:47.912Z,11.43
2017-03-30T02:01:28.798Z,11.45
2017-03-30T02:02:09.678Z,11.47
2017-03-30T02:02:50.557Z,11.54
2017-03-30T02:03:31.440Z,11.52
2017-03-30T02:04:12.328Z,11.5
2017-03-30T02:04:53.205Z,11.51
2017-03-30T02:05:34.091Z,11.45
2017-03-30T02:06:14.969Z,11.44
2017-03-30T02:06:55.847Z,11.51
2017-03-30T02:07:36.832Z,11.54
2017-03-30T02:08:17.724Z,11.55
2017-03-30T02:08:58.621Z,11.5
2017-03-30T02:09:39.508Z,11.47
2017-03-30T02:10:20.934Z,11.45
2017-03-30T02:11:02.046Z,11.51
2017-03-30T02:11:42.927Z,11.52
2017-03-30T02:12:23.815Z,11.47
2017-03-30T02:13:04.744Z,11.59
2017-03-30T02:13:45.643Z,11.5
2017-03-30T02:14:27.066Z,11.5
2017-03-30T02:15:08.202Z,11.5
2017-03-30T02:15:49.092Z,11.51
2017-03-30T02:16:29.964Z,11.5
2017-03-30T02:17:10.859Z,11.5
2017-03-30T02:17:51.727Z,11.47
2017-03-30T02:18:32.628Z,11.48
2017-03-30T02:19:13.506Z,11.55
2017-03-30T02:19:54.382Z,11.55
2017-03-30T02:20:35.269Z,11.44
2017-03-30T02:21:16.151Z,11.5
2017-03-30T02:21:57.031Z,11.5
2017-03-30T02:22:37.954Z,11.48
2017-03-30T02:23:18.838Z,11.43
2017-03-30T02:23:59.726Z,11.43
2017-03-30T02:24:40.630Z,11.43
2017-03-30T02:25:21.499Z,11.35
2017-03-30T02:26:02.381Z,11.41
2017-03-30T02:26:43.260Z,11.43
2017-03-30T02:27:24.141Z,11.45
2017-03-30T02:28:05.040Z,11.35
2017-03-30T02:28:45.920Z,11.4
2017-03-30T02:29:26.799Z,11.26
2017-03-30T02:30:07.687Z,11.32
2017-03-30T02:30:48.572Z,11.36
2017-03-30T02:31:29.472Z,11.26
2017-03-30T02:32:10.366Z,11.33
2017-03-30T02:32:51.247Z,11.22
2017-03-30T02:33:32.115Z,11.43
2017-03-30T02:34:13.028Z,11.41
2017-03-30T02:34:53.872Z,11.27
2017-03-30T02:35:34.757Z,11.26
2017-03-30T02:36:15.639Z,11.27
2017-03-30T02:36:56.516Z,11.23
2017-03-30T02:37:37.478Z,11.19
2017-03-30T02:38:18.442Z,11.14
2017-03-30T02:38:59.241Z,11.17
2017-03-30T02:39:40.125Z,11.14
2017-03-30T02:40:21.024Z,11.18
2017-03-30T02:41:01.890Z,11.15
2017-03-30T02:41:42.783Z,11.22
2017-03-30T02:42:23.665Z,11.26
2017-03-30T02:43:04.545Z,11.19
2017-03-30T02:43:45.422Z,11.19
2017-03-30T02:44:26.315Z,11.27
2017-03-30T02:45:07.199Z,11.27
2017-03-30T02:45:48.076Z,11.27
2017-03-30T02:46:28.956Z,11.29
2017-03-30T02:47:09.841Z,11.4
2017-03-30T02:47:50.733Z,11.27
2017-03-30T02:48:31.643Z,11.32
2017-03-30T02:49:12.527Z,11.43
2017-03-30T02:49:53.408Z,11.37
2017-03-30T02:50:34.288Z,11.45
2017-03-30T02:51:15.168Z,11.4
2017-03-30T02:51:56.051Z,11.4
2017-03-30T02:52:36.923Z,11.37
2017-03-30T02:53:17.808Z,11.23
2017-03-30T02:53:58.689Z,11.25
2017-03-30T02:54:39.585Z,11.26
2017-03-30T02:55:20.475Z,11.3
2017-03-30T02:56:01.363Z,11.27
2017-03-30T02:56:42.266Z,11.36
2017-03-30T02:57:23.148Z,11.33
2017-03-30T02:58:04.026Z,11.3
2017-03-30T02:58:44.907Z,11.32
2017-03-30T02:59:25.793Z,11.45
2017-03-30T03:00:06.675Z,11.29
2017-03-30T03:00:47.564Z,11.44
2017-03-30T03:01:28.436Z,11.35
2017-03-30T03:02:09.330Z,11.4
2017-03-30T03:02:50.216Z,11.44
2017-03-30T03:03:31.107Z,11.43
2017-03-30T03:04:11.969Z,11.37
2017-03-30T03:04:52.855Z,11.41
2017-03-30T03:05:33.748Z,11.37
2017-03-30T03:06:14.628Z,11.44
2017-03-30T03:06:55.515Z,11.35
2017-03-30T03:07:36.400Z,11.37
2017-03-30T03:08:17.292Z,11.4
2017-03-30T03:08:58.166Z,11.29
2017-03-30T03:09:39.051Z,11.36
2017-03-30T03:10:19.934Z,11.43
2017-03-30T03:11:00.819Z,11.44
2017-03-30T03:11:41.704Z,11.37
2017-03-30T03:12:22.585Z,11.4
2017-03-30T03:13:03.468Z,11.4
2017-03-30T03:13:44.358Z,11.43
2017-03-30T03:14:25.292Z,11.43
2017-03-30T03:15:06.169Z,11.35
2017-03-30T03:15:47.055Z,11.41
2017-03-30T03:16:27.937Z,11.47
2017-03-30T03:17:08.836Z,11.5
2017-03-30T03:17:49.697Z,11.47
2017-03-30T03:18:30.580Z,11.5
2017-03-30T03:19:11.462Z,11.52
2017-03-30T03:19:52.349Z,11.5
2017-03-30T03:20:33.238Z,11.52
2017-03-30T03:21:14.124Z,11.5
2017-03-30T03:21:55.016Z,11.5
2017-03-30T03:22:35.898Z,11.51
2017-03-30T03:23:16.788Z,11.52
2017-03-30T03:23:57.671Z,11.5
2017-03-30T03:24:38.562Z,11.47
2017-03-30T03:25:19.440Z,11.5
2017-03-30T03:26:00.318Z,11.5
2017-03-30T03:26:41.200Z,11.48
2017-03-30T03:27:22.090Z,11.43
2017-03-30T03:28:02.973Z,11.44
2017-03-30T03:28:43.856Z,11.5
2017-03-30T03:29:24.738Z,11.5
2017-03-30T03:30:05.655Z,11.47
2017-03-30T03:30:46.539Z,11.51
2017-03-30T03:31:27.421Z,11.5
2017-03-30T03:32:08.304Z,11.52
2017-03-30T03:32:49.185Z,11.59
2017-03-30T03:33:30.072Z,11.6
2017-03-30T03:34:10.959Z,11.66
2017-03-30T03:34:51.845Z,11.65
2017-03-30T03:35:32.728Z,11.69
2017-03-30T03:36:13.636Z,11.66
2017-03-30T03:36:54.521Z,11.63
2017-03-30T03:38:49.130Z,11.65
2017-03-30T03:39:30.014Z,11.66
2017-03-30T03:40:10.903Z,11.68
2017-03-30T03:40:51.817Z,11.7
2017-03-30T03:41:32.706Z,11.62
2017-03-30T03:42:13.588Z,11.62
2017-03-30T03:42:54.475Z,11.78
2017-03-30T03:43:35.359Z,11.7
2017-03-30T03:44:16.246Z,11.6
2017-03-30T03:44:57.130Z,11.63
2017-03-30T03:45:38.012Z,11.59
2017-03-30T03:46:18.885Z,11.54
2017-03-30T03:46:59.767Z,11.51
2017-03-30T03:47:40.656Z,11.54
2017-03-30T03:48:21.540Z,11.69
2017-03-30T03:49:02.430Z,11.63
2017-03-30T03:49:43.332Z,11.7
2017-03-30T03:50:24.207Z,11.7
2017-03-30T03:51:05.095Z,11.77
2017-03-30T03:51:45.990Z,11.75
2017-03-30T03:52:26.876Z,11.81
2017-03-30T03:53:07.767Z,11.78
2017-03-30T03:53:48.632Z,11.7
2017-03-30T03:54:29.514Z,11.7
2017-03-30T03:55:10.396Z,11.7
2017-03-30T03:55:51.266Z,11.73
2017-03-30T03:56:32.149Z,11.63
2017-03-30T03:57:13.020Z,11.48
2017-03-30T03:57:53.903Z,11.4
2017-03-30T03:58:34.788Z,11.44
2017-03-30T03:59:15.671Z,11.51
2017-03-30T03:59:56.555Z,11.55
2017-03-30T04:00:37.454Z,11.54
2017-03-30T04:01:18.348Z,11.57
2017-03-30T04:01:59.226Z,11.51
2017-03-30T04:02:40.086Z,11.45
2017-03-30T04:03:20.974Z,11.47
2017-03-30T04:04:01.907Z,11.5
2017-03-30T04:04:42.772Z,11.44
2017-03-30T04:05:23.653Z,11.47
2017-03-30T04:06:04.543Z,11.43
2017-03-30T04:06:45.435Z,11.5
2017-03-30T04:07:26.292Z,11.44
2017-03-30T04:08:07.171Z,11.51
2017-03-30T04:08:48.053Z,11.5
2017-03-30T04:09:28.939Z,11.44
2017-03-30T04:10:09.824Z,11.45
2017-03-30T04:10:50.704Z,11.4
2017-03-30T04:11:31.590Z,11.35
2017-03-30T04:12:12.484Z,11.44
2017-03-30T04:12:53.414Z,11.4
2017-03-30T04:13:34.332Z,11.44
2017-03-30T04:15:07.630Z,11.47
2017-03-30T04:15:48.511Z,11.41
2017-03-30T04:16:29.396Z,11.55
2017-03-30T04:17:10.281Z,11.45
2017-03-30T04:17:51.155Z,11.36
2017-03-30T04:18:32.035Z,11.3
2017-03-30T04:19:12.938Z,11.3
2017-03-30T04:19:53.814Z,11.19
2017-03-30T04:20:34.720Z,11.29
2017-03-30T04:22:13.152Z,11.4
2017-03-30T04:22:54.006Z,11.43
2017-03-30T04:23:34.889Z,11.43
2017-03-30T04:25:28.527Z,11.5
2017-03-30T04:26:09.445Z,11.48
2017-03-30T04:26:50.402Z,11.43
2017-03-30T04:27:31.280Z,11.35
2017-03-30T04:28:12.169Z,11.25
2017-03-30T04:28:53.051Z,11.19
2017-03-30T04:29:33.932Z,11.25
2017-03-30T04:30:14.819Z,11.23
2017-03-30T04:30:55.709Z,11.23
2017-03-30T04:31:36.587Z,11.29
2017-03-30T04:32:17.475Z,11.25
2017-03-30T04:32:58.362Z,11.3
2017-03-30T04:33:39.245Z,11.4
2017-03-30T04:34:20.111Z,11.4
2017-03-30T04:35:00.979Z,11.43
2017-03-30T04:35:41.849Z,11.4
2017-03-30T04:36:22.725Z,11.32
2017-03-30T04:37:03.617Z,11.27
2017-03-30T04:37:44.496Z,11.4
2017-03-30T04:38:25.365Z,11.45
2017-03-30T04:39:06.237Z,11.54
2017-03-30T04:39:47.109Z,11.57
2017-03-30T04:40:28.005Z,11.55
2017-03-30T04:41:08.885Z,11.48
2017-03-30T04:41:49.761Z,11.5
2017-03-30T04:42:30.631Z,11.57
2017-03-30T04:43:11.518Z,11.55
2017-03-30T04:43:52.402Z,11.59
2017-03-30T04:44:33.283Z,11.6
2017-03-30T04:45:14.165Z,11.66
2017-03-30T04:45:55.044Z,11.62
2017-03-30T04:46:35.923Z,11.52
2017-03-30T04:47:16.811Z,11.54
2017-03-30T04:47:57.695Z,11.62
2017-03-30T04:48:38.563Z,11.55
2017-03-30T04:49:19.442Z,11.51
2017-03-30T04:50:00.331Z,11.54
2017-03-30T04:50:41.202Z,11.5
2017-03-30T04:51:22.085Z,11.54
2017-03-30T04:52:02.962Z,11.54
2017-03-30T04:52:43.848Z,11.55
2017-03-30T04:53:24.716Z,11.57
2017-03-30T04:54:05.599Z,11.48
2017-03-30T04:54:46.496Z,11.5
2017-03-30T04:55:27.380Z,11.4
2017-03-30T04:56:08.261Z,11.32
2017-03-30T04:56:49.150Z,11.45
2017-03-30T04:57:30.016Z,11.47
2017-03-30T04:58:10.891Z,11.44
2017-03-30T04:58:51.787Z,11.47
2017-03-30T04:59:32.673Z,11.52
2017-03-30T05:00:13.554Z,11.45
2017-03-30T05:00:54.437Z,11.52
2017-03-30T05:01:35.321Z,11.47
2017-03-30T05:02:16.201Z,11.45
2017-03-30T05:02:57.074Z,11.45
2017-03-30T05:03:37.955Z,11.5
2017-03-30T05:04:18.836Z,11.54
2017-03-30T05:04:59.727Z,11.48
2017-03-30T05:05:40.625Z,11.43
2017-03-30T05:06:21.506Z,11.5
2017-03-30T05:07:02.392Z,11.48
2017-03-30T05:07:43.278Z,11.51
2017-03-30T05:08:24.154Z,11.4
2017-03-30T05:09:05.039Z,11.4
2017-03-30T05:09:45.935Z,11.35
2017-03-30T05:10:26.822Z,11.4
2017-03-30T05:11:07.704Z,11.43
2017-03-30T05:11:48.584Z,11.37
2017-03-30T05:12:29.465Z,11.48
2017-03-30T05:13:10.343Z,11.52
2017-03-30T05:13:51.225Z,11.57
2017-03-30T05:14:32.099Z,11.51
2017-03-30T05:15:13.065Z,11.44
2017-03-30T05:15:53.939Z,11.48
2017-03-30T05:16:34.823Z,11.52
2017-03-30T05:17:15.697Z,11.41
2017-03-30T05:17:56.574Z,11.51
2017-03-30T05:18:37.474Z,11.55
2017-03-30T05:19:18.342Z,11.55
2017-03-30T05:19:59.218Z,11.57
2017-03-30T05:20:40.093Z,11.55
2017-03-30T05:21:20.970Z,11.54
2017-03-30T05:22:01.852Z,11.55
2017-03-30T05:22:42.733Z,11.57
2017-03-30T05:23:23.629Z,11.57
2017-03-30T05:24:04.507Z,11.55
2017-03-30T05:24:45.416Z,11.57
2017-03-30T05:25:26.292Z,11.62
2017-03-30T05:26:07.157Z,11.5
2017-03-30T05:26:48.044Z,11.51
2017-03-30T05:27:28.927Z,11.47
2017-03-30T05:28:09.810Z,11.55
2017-03-30T05:28:50.693Z,11.54
2017-03-30T05:29:31.583Z,11.5
2017-03-30T05:30:12.461Z,11.23
2017-03-30T05:30:53.364Z,11.44
2017-03-30T05:31:34.245Z,11.51
2017-03-30T05:32:15.122Z,11.4
2017-03-30T05:32:56.006Z,11.41
2017-03-30T05:33:36.881Z,11.43
2017-03-30T05:34:17.761Z,11.57
2017-03-30T05:34:58.641Z,11.6
2017-03-30T05:35:39.520Z,11.59
2017-03-30T05:36:20.405Z,11.52
2017-03-30T05:37:01.287Z,11.54
2017-03-30T05:37:42.167Z,11.65
2017-03-30T05:38:23.058Z,11.52
2017-03-30T05:39:03.949Z,11.45
2017-03-30T05:39:44.824Z,11.52
2017-03-30T05:40:25.710Z,11.59
2017-03-30T05:41:06.613Z,11.51
2017-03-30T05:41:47.496Z,11.52
2017-03-30T05:42:28.371Z,11.41
2017-03-30T05:43:09.263Z,11.45
2017-03-30T05:43:50.148Z,11.3
2017-03-30T05:44:31.029Z,11.22
2017-03-30T05:45:11.905Z,11.29
2017-03-30T05:45:52.820Z,11.36
2017-03-30T05:46:33.700Z,11.37
2017-03-30T05:47:14.572Z,11.37
2017-03-30T05:47:55.439Z,11.44
2017-03-30T05:48:36.299Z,11.37
2017-03-30T05:49:17.175Z,11.43
2017-03-30T05:49:58.043Z,11.43
2017-03-30T05:50:38.921Z,11.12
2017-03-30T05:51:19.805Z,11.12
2017-03-30T05:52:00.685Z,11.08
2017-03-30T05:52:41.568Z,11
2017-03-30T05:53:22.463Z,10.97
2017-03-30T05:54:03.354Z,11.11
2017-03-30T05:54:44.229Z,11.05
2017-03-30T05:55:25.110Z,11.07
2017-03-30T05:56:05.996Z,11.15
2017-03-30T05:56:46.878Z,11.08
2017-03-30T05:57:27.785Z,11.22
2017-03-30T05:58:08.671Z,11.14
2017-03-30T05:58:49.651Z,10.93
2017-03-30T05:59:30.540Z,11
2017-03-30T06:00:11.438Z,10.87
2017-03-30T06:00:52.327Z,10.96
2017-03-30T06:01:33.212Z,10.92
2017-03-30T06:02:14.092Z,10.96
2017-03-30T06:02:54.983Z,11
2017-03-30T06:03:35.869Z,11.02
2017-03-30T06:04:16.755Z,10.97
2017-03-30T06:04:57.646Z,11
2017-03-30T06:05:38.536Z,11.1
2017-03-30T06:06:19.442Z,11.07
2017-03-30T06:07:00.333Z,11.25
2017-03-30T06:07:41.213Z,11.23
2017-03-30T06:08:22.090Z,11.32
2017-03-30T06:09:02.983Z,11.25
2017-03-30T06:09:43.899Z,11.37
2017-03-30T06:10:24.750Z,11.27
2017-03-30T06:11:05.625Z,11.4
2017-03-30T06:11:46.518Z,11.45
2017-03-30T06:12:27.406Z,11.48
2017-03-30T06:13:08.288Z,11.48
2017-03-30T06:13:49.164Z,11.52
2017-03-30T06:14:30.055Z,11.5
2017-03-30T06:15:10.926Z,11.48
2017-03-30T06:15:51.802Z,11.52
2017-03-30T06:16:32.690Z,11.52
2017-03-30T06:17:13.590Z,11.57
2017-03-30T06:17:54.467Z,11.41
2017-03-30T06:18:35.356Z,11.5
2017-03-30T06:19:16.212Z,11.48
2017-03-30T06:19:57.100Z,11.59
2017-03-30T06:20:37.984Z,11.63
2017-03-30T06:21:18.870Z,11.73
2017-03-30T06:21:59.752Z,11.72
2017-03-30T06:22:40.647Z,11.77
2017-03-30T06:23:21.526Z,11.75
2017-03-30T06:24:02.415Z,11.75
2017-03-30T06:24:43.300Z,11.68
2017-03-30T06:25:24.186Z,11.68
2017-03-30T06:26:05.050Z,11.73
2017-03-30T06:26:45.930Z,11.75
2017-03-30T06:27:26.864Z,11.48
2017-03-30T06:28:44.764Z,11.62
2017-03-30T06:29:25.648Z,11.25
2017-03-30T06:30:06.529Z,11.3
2017-03-30T06:30:47.407Z,11.17
2017-03-30T06:31:28.277Z,11.26
2017-03-30T06:32:09.166Z,11.11
2017-03-30T06:32:50.051Z,11.22
2017-03-30T06:33:30.931Z,11.37
2017-03-30T06:34:11.818Z,11.35
2017-03-30T06:34:52.692Z,11.29
2017-03-30T06:35:33.569Z,11.4
2017-03-30T06:36:14.440Z,11.52
2017-03-30T06:36:55.308Z,11.66
2017-03-30T06:37:36.208Z,11.66
2017-03-30T06:38:17.118Z,11.57
2017-03-30T06:38:57.994Z,11.59
2017-03-30T06:39:38.878Z,11.78
2017-03-30T06:40:19.770Z,11.78
2017-03-30T06:41:00.659Z,11.73
2017-03-30T06:41:41.543Z,11.63
2017-03-30T06:42:22.415Z,11.51
2017-03-30T06:43:03.299Z,11.52
2017-03-30T06:43:44.186Z,11.47
2017-03-30T06:44:25.134Z,11.48
2017-03-30T06:45:05.980Z,11.63
2017-03-30T06:45:46.862Z,11.81
2017-03-30T06:46:27.748Z,11.75
2017-03-30T06:47:08.628Z,11.87
2017-03-30T06:47:49.516Z,11.84
2017-03-30T06:48:30.387Z,11.7
2017-03-30T06:49:11.269Z,11.81
2017-03-30T06:49:52.139Z,11.83
2017-03-30T06:50:33.022Z,11.88
2017-03-30T06:51:13.898Z,11.68
2017-03-30T06:51:54.778Z,11.72
2017-03-30T06:52:35.659Z,11.84
2017-03-30T06:53:16.531Z,11.86
2017-03-30T06:53:57.411Z,11.9
2017-03-30T06:54:38.293Z,11.88
2017-03-30T06:55:19.181Z,11.91
2017-03-30T06:56:00.060Z,11.95
2017-03-30T06:56:40.944Z,11.97
2017-03-30T06:57:21.827Z,11.94
2017-03-30T06:58:02.702Z,11.99
2017-03-30T06:58:43.582Z,12.15
2017-03-30T06:59:24.463Z,12.09
2017-03-30T07:00:05.387Z,12
2017-03-30T07:00:46.224Z,12.03
2017-03-30T07:02:40.857Z,12.06
2017-03-30T07:03:21.736Z,12.09
2017-03-30T07:04:02.623Z,12.06
2017-03-30T07:04:43.506Z,12.07
2017-03-30T07:05:24.396Z,12.1
2017-03-30T07:06:05.266Z,12.17
2017-03-30T07:06:46.163Z,12.2
2017-03-30T07:07:27.045Z,12.18
2017-03-30T07:08:07.926Z,12.21
2017-03-30T07:08:48.812Z,12.2
2017-03-30T07:09:29.694Z,12.21
2017-03-30T07:10:10.598Z,12.2
2017-03-30T07:10:51.559Z,12.15
2017-03-30T07:11:32.426Z,12.17
2017-03-30T07:12:13.311Z,12.06
2017-03-30T07:12:54.193Z,12.17
2017-03-30T07:13:35.078Z,12
2017-03-30T07:14:15.954Z,12
2017-03-30T07:14:56.835Z,12.02
2017-03-30T07:15:37.721Z,12.09
2017-03-30T07:16:18.604Z,12.03
2017-03-30T07:16:59.504Z,12.03
2017-03-30T07:17:40.389Z,12.1
2017-03-30T07:18:21.276Z,12.09
2017-03-30T07:19:02.159Z,12.15
2017-03-30T07:19:43.042Z,12.2
2017-03-30T07:20:23.930Z,12.27
2017-03-30T07:21:04.867Z,12.15
2017-03-30T07:21:45.752Z,12.1
2017-03-30T07:22:26.629Z,12.03
2017-03-30T07:23:07.535Z,12.02
2017-03-30T07:23:48.413Z,11.97
2017-03-30T07:24:29.368Z,12.04
2017-03-30T07:25:10.227Z,12
2017-03-30T07:25:51.109Z,12.03
2017-03-30T07:26:31.989Z,12.06
2017-03-30T07:27:12.917Z,12.03
2017-03-30T07:27:53.748Z,12.12
2017-03-30T07:28:34.633Z,12.07
2017-03-30T07:29:15.516Z,12.18
2017-03-30T07:29:56.399Z,12.31
2017-03-30T07:30:37.290Z,12.37
2017-03-30T07:31:18.180Z,12.49
2017-03-30T07:31:59.068Z,12.64
2017-03-30T07:32:39.943Z,12.68
2017-03-30T07:33:20.833Z,12.67
2017-03-30T07:34:01.714Z,12.6
2017-03-30T07:34:42.594Z,12.62
2017-03-30T07:35:23.471Z,12.61
2017-03-30T07:36:04.348Z,12.58
2017-03-30T07:36:45.228Z,12.7
2017-03-30T07:37:26.113Z,12.65
2017-03-30T07:38:06.997Z,12.6
2017-03-30T07:39:36.119Z,12.6
2017-03-30T07:40:16.990Z,12.54
2017-03-30T07:40:57.871Z,12.58
2017-03-30T07:41:38.751Z,12.79
2017-03-30T07:42:19.640Z,12.8
2017-03-30T07:43:00.525Z,12.79
2017-03-30T07:43:41.405Z,12.64
2017-03-30T07:44:22.281Z,12.83
2017-03-30T07:45:03.149Z,12.8
2017-03-30T07:45:44.070Z,12.83
2017-03-30T07:46:24.957Z,12.8
2017-03-30T07:47:05.830Z,12.68
2017-03-30T07:47:46.712Z,12.7
2017-03-30T07:48:27.655Z,12.85
2017-03-30T07:49:08.502Z,12.97
2017-03-30T07:49:49.382Z,12.94
2017-03-30T07:50:30.273Z,12.98
2017-03-30T07:51:11.150Z,13
2017-03-30T07:51:52.033Z,13
2017-03-30T07:52:32.911Z,13.31
2017-03-30T07:53:13.785Z,13.31
2017-03-30T07:53:54.664Z,13.16
2017-03-30T07:54:35.541Z,13.27
2017-03-30T07:56:13.975Z,13.25
2017-03-30T07:56:54.852Z,13.2
2017-03-30T07:57:35.736Z,13.27
2017-03-30T07:58:16.619Z,13.3
2017-03-30T07:58:57.507Z,13.31
2017-03-30T07:59:38.367Z,13.23
2017-03-30T08:00:19.240Z,13.19
2017-03-30T08:01:00.129Z,13.31
2017-03-30T08:01:41.018Z,13.31
2017-03-30T08:02:21.885Z,13.28
2017-03-30T08:03:02.777Z,13.28
2017-03-30T08:03:43.653Z,13.25
2017-03-30T08:04:24.547Z,13.28
2017-03-30T08:05:05.440Z,13.12
2017-03-30T08:05:46.320Z,13.27
2017-03-30T08:06:27.201Z,13.27
2017-03-30T08:07:08.104Z,13.13
2017-03-30T08:07:48.978Z,13.09
2017-03-30T08:08:29.870Z,13.09
2017-03-30T08:09:10.757Z,13.12
2017-03-30T08:09:51.642Z,13.27
2017-03-30T08:10:32.522Z,13.18
2017-03-30T08:11:13.402Z,13.12
2017-03-30T08:11:54.283Z,13.12
2017-03-30T08:12:35.160Z,13.11
2017-03-30T08:13:16.044Z,13.15
2017-03-30T08:13:56.928Z,13.15
2017-03-30T08:14:37.817Z,13.23
2017-03-30T08:15:18.703Z,13.28
2017-03-30T08:15:59.582Z,13.39
2017-03-30T08:16:40.471Z,13.39
2017-03-30T08:17:21.361Z,13.37
2017-03-30T08:18:02.246Z,13.47
2017-03-30T08:18:43.138Z,13.38
2017-03-30T08:19:24.032Z,13.42
2017-03-30T08:20:04.919Z,13.62
2017-03-30T08:20:45.800Z,13.75
2017-03-30T08:21:26.682Z,13.7
2017-03-30T08:22:07.574Z,13.75
2017-03-30T08:22:48.453Z,13.63
2017-03-30T08:23:29.348Z,13.7
2017-03-30T08:24:10.241Z,13.75
2017-03-30T08:24:51.125Z,13.6
2017-03-30T08:25:31.994Z,13.67
2017-03-30T08:26:12.869Z,13.7
2017-03-30T08:26:53.749Z,13.71
2017-03-30T08:27:34.639Z,13.67
2017-03-30T08:28:15.522Z,13.81
2017-03-30T08:28:56.405Z,13.75
2017-03-30T08:29:37.289Z,13.67
2017-03-30T08:30:18.175Z,13.68
2017-03-30T08:30:59.053Z,13.52
2017-03-30T08:31:39.942Z,13.49
2017-03-30T08:32:20.838Z,13.42
2017-03-30T08:33:01.722Z,13.44
2017-03-30T08:33:42.610Z,13.5
2017-03-30T08:34:23.497Z,13.68
2017-03-30T08:35:04.377Z,13.96
2017-03-30T08:35:45.258Z,14
2017-03-30T08:36:26.142Z,14.08
2017-03-30T08:37:07.025Z,13.93
2017-03-30T08:37:47.910Z,14.08
2017-03-30T08:38:28.791Z,14.08
2017-03-30T08:39:09.681Z,14.07
2017-03-30T08:39:50.564Z,13.96
2017-03-30T08:40:31.448Z,14.1
2017-03-30T08:41:12.332Z,14.15
2017-03-30T08:41:53.213Z,14.32
2017-03-30T08:42:34.092Z,14
2017-03-30T08:43:14.982Z,14.1
2017-03-30T08:43:55.860Z,14.1
2017-03-30T08:44:36.738Z,14.1
2017-03-30T08:45:17.625Z,13.9
2017-03-30T08:45:58.507Z,13.87
2017-03-30T08:46:39.391Z,13.92
2017-03-30T08:47:20.277Z,13.96
2017-03-30T08:48:01.155Z,14.18
2017-03-30T08:48:42.035Z,14.43
2017-03-30T08:50:20.502Z,14.59
2017-03-30T08:51:01.437Z,14.7
2017-03-30T08:51:42.319Z,14.85
2017-03-30T08:52:23.206Z,14.3
2017-03-30T08:53:04.092Z,14.05
2017-03-30T08:53:44.974Z,14.14
2017-03-30T08:54:25.851Z,14.2
2017-03-30T08:55:06.740Z,14.51
2017-03-30T08:55:47.626Z,14.6
2017-03-30T08:56:28.504Z,14.72
2017-03-30T08:57:09.384Z,14.51
2017-03-30T08:57:50.275Z,14.59
2017-03-30T08:58:31.157Z,14.81
2017-03-30T08:59:12.039Z,14.65